createdAt,value
2022-12-18T00:01:37.018Z,-1.90
2022-12-18T00:04:05.830Z,-1.91
2022-12-18T00:06:33.525Z,-1.93
2022-12-18T00:09:01.408Z,-1.92
2022-12-18T00:11:28.791Z,-1.98
2022-12-18T00:13:57.388Z,-1.95
2022-12-18T00:16:25.821Z,-1.96
2022-12-18T00:18:55.106Z,-1.96
2022-12-18T00:21:22.009Z,-1.96
2022-12-18T00:23:49.838Z,-1.98
2022-12-18T00:26:18.080Z,-2.03
2022-12-18T00:28:45.495Z,-2.01
2022-12-18T00:31:17.844Z,-1.97
2022-12-18T00:33:44.752Z,-1.99
2022-12-18T00:36:14.554Z,-1.99
2022-12-18T00:38:41.921Z,-1.99
2022-12-18T00:41:11.437Z,-1.99
2022-12-18T00:43:39.486Z,-1.97
2022-12-18T00:46:06.733Z,-1.99
2022-12-18T00:48:33.723Z,-1.99
2022-12-18T00:51:00.290Z,-1.99
2022-12-18T00:53:26.812Z,-1.99
2022-12-18T00:55:53.307Z,-1.99
2022-12-18T00:58:19.819Z,-2.01
2022-12-18T01:00:46.506Z,-2.01
2022-12-18T01:03:15.747Z,-2.04
2022-12-18T01:05:44.163Z,-2.06
2022-12-18T01:08:11.835Z,-2.05
2022-12-18T01:10:41.867Z,-2.04
2022-12-18T01:13:08.800Z,-2.02
2022-12-18T01:15:35.797Z,-2.01
2022-12-18T01:18:02.388Z,-1.99
2022-12-18T01:20:29.090Z,-2.00
2022-12-18T01:22:55.622Z,-1.99
2022-12-18T01:25:22.118Z,-1.97
2022-12-18T01:27:51.000Z,-1.95
2022-12-18T01:30:17.667Z,-1.95
2022-12-18T01:32:45.589Z,-1.97
2022-12-18T01:35:12.093Z,-1.97
2022-12-18T01:37:38.704Z,-1.99
2022-12-18T01:40:06.019Z,-1.96
2022-12-18T01:42:32.506Z,-1.97
2022-12-18T01:45:12.430Z,-1.96
2022-12-18T01:47:51.669Z,-1.96
2022-12-18T01:50:25.681Z,-1.96
2022-12-18T01:53:00.857Z,-1.94
2022-12-18T01:55:31.785Z,-1.90
2022-12-18T01:58:00.230Z,-1.88
2022-12-18T02:00:27.886Z,-1.86
2022-12-18T02:02:54.920Z,-1.83
2022-12-18T02:05:35.093Z,-1.83
2022-12-18T02:08:23.009Z,-1.77
2022-12-18T02:11:08.269Z,-1.75
2022-12-18T02:14:09.548Z,-1.76
2022-12-18T02:16:57.230Z,-1.77
2022-12-18T02:19:26.833Z,-1.77
2022-12-18T02:22:25.843Z,-1.76
2022-12-18T02:25:06.102Z,-1.75
2022-12-18T02:27:34.985Z,-1.73
2022-12-18T02:30:03.173Z,-1.71
2022-12-18T02:32:34.762Z,-1.72
2022-12-18T02:35:03.518Z,-1.72
2022-12-18T02:37:32.270Z,-1.74
2022-12-18T02:40:04.294Z,-1.75
2022-12-18T02:42:33.805Z,-1.78
2022-12-18T02:45:02.084Z,-1.76
2022-12-18T02:47:33.675Z,-1.77
2022-12-18T02:50:11.653Z,-1.80
2022-12-18T02:53:05.811Z,-1.79
2022-12-18T02:55:45.367Z,-1.77
2022-12-18T02:59:02.402Z,-1.76
2022-12-18T03:01:56.350Z,-1.75
2022-12-18T03:04:31.595Z,-1.76
2022-12-18T03:07:03.894Z,-1.74
2022-12-18T03:09:39.316Z,-1.74
2022-12-18T03:12:32.628Z,-1.76
2022-12-18T03:15:04.762Z,-1.77
2022-12-18T03:17:34.227Z,-1.75
2022-12-18T03:20:09.594Z,-1.77
2022-12-18T03:22:39.230Z,-1.77
2022-12-18T03:25:11.571Z,-1.77
2022-12-18T03:27:43.261Z,-1.75
2022-12-18T03:30:14.137Z,-1.75
2022-12-18T03:32:48.557Z,-1.75
2022-12-18T03:35:24.242Z,-1.75
2022-12-18T03:37:51.120Z,-1.76
2022-12-18T03:40:19.271Z,-1.78
2022-12-18T03:42:51.806Z,-1.80
2022-12-18T03:45:33.554Z,-1.80
2022-12-18T03:48:11.849Z,-1.79
2022-12-18T03:50:56.444Z,-1.79
2022-12-18T03:53:46.310Z,-1.81
2022-12-18T03:56:15.905Z,-1.80
2022-12-18T03:58:46.584Z,-1.80
2022-12-18T04:01:20.939Z,-1.77
2022-12-18T04:03:51.072Z,-1.80
2022-12-18T04:06:20.250Z,-1.79
2022-12-18T04:08:48.182Z,-1.77
2022-12-18T04:11:18.097Z,-1.76
2022-12-18T04:13:46.268Z,-1.76
2022-12-18T04:16:21.916Z,-1.77
2022-12-18T04:18:52.211Z,-1.76
2022-12-18T04:21:20.367Z,-1.77
2022-12-18T04:23:48.288Z,-1.77
2022-12-18T04:26:15.004Z,-1.81
2022-12-18T04:29:00.395Z,-1.82
2022-12-18T04:31:29.682Z,-1.84
2022-12-18T04:33:56.861Z,-1.84
2022-12-18T04:36:23.817Z,-1.84
2022-12-18T04:38:50.321Z,-1.82
2022-12-18T04:41:17.655Z,-1.83
2022-12-18T04:43:47.264Z,-1.81
2022-12-18T04:46:14.254Z,-1.80
2022-12-18T04:48:41.506Z,-1.78
2022-12-18T04:51:08.547Z,-1.75
2022-12-18T04:53:35.599Z,-1.73
2022-12-18T04:56:09.887Z,-1.73
2022-12-18T04:58:37.675Z,-1.71
2022-12-18T05:01:04.556Z,-1.75
2022-12-18T05:03:31.844Z,-1.72
2022-12-18T05:06:01.101Z,-1.70
2022-12-18T05:08:27.665Z,-1.69
2022-12-18T05:11:00.860Z,-1.70
2022-12-18T05:13:28.325Z,-1.71
2022-12-18T05:15:55.594Z,-1.70
2022-12-18T05:18:23.988Z,-1.68
2022-12-18T05:20:52.220Z,-1.70
2022-12-18T05:23:20.358Z,-1.69
2022-12-18T05:25:54.369Z,-1.76
2022-12-18T05:28:22.261Z,-1.73
2022-12-18T05:30:55.676Z,-1.75
2022-12-18T05:33:23.531Z,-1.73
2022-12-18T05:36:00.986Z,-1.72
2022-12-18T05:38:28.784Z,-1.74
2022-12-18T05:40:56.381Z,-1.77
2022-12-18T05:43:24.045Z,-1.77
2022-12-18T05:45:51.101Z,-1.79
2022-12-18T05:48:18.190Z,-1.79
2022-12-18T05:50:46.743Z,-1.83
2022-12-18T05:53:14.788Z,-1.83
2022-12-18T05:55:42.730Z,-1.84
2022-12-18T05:58:10.261Z,-1.90
2022-12-18T06:00:39.067Z,-1.87
2022-12-18T06:03:05.682Z,-1.87
2022-12-18T06:05:39.818Z,-1.87
2022-12-18T06:08:06.682Z,-1.86
2022-12-18T06:10:33.414Z,-1.84
2022-12-18T06:13:00.108Z,-1.84
2022-12-18T06:15:26.728Z,-1.85
2022-12-18T06:17:53.237Z,-1.85
2022-12-18T06:20:19.954Z,-1.84
2022-12-18T06:22:46.444Z,-1.83
2022-12-18T06:25:12.991Z,-1.83
2022-12-18T06:27:39.669Z,-1.85
2022-12-18T06:30:07.167Z,-1.83
2022-12-18T06:32:33.729Z,-1.87
2022-12-18T06:35:00.180Z,-1.87
2022-12-18T06:37:26.757Z,-1.87
2022-12-18T06:39:54.338Z,-1.90
2022-12-18T06:42:20.824Z,-1.92
2022-12-18T06:44:47.331Z,-1.93
2022-12-18T06:47:13.882Z,-1.92
2022-12-18T06:49:40.635Z,-1.91
2022-12-18T06:52:07.290Z,-1.90
2022-12-18T06:54:33.769Z,-1.89
2022-12-18T06:57:00.244Z,-1.89
2022-12-18T06:59:26.757Z,-1.88
2022-12-18T07:01:54.691Z,-1.88
2022-12-18T07:04:21.346Z,-1.86
2022-12-18T07:06:50.868Z,-1.88
2022-12-18T07:09:17.349Z,-1.89
2022-12-18T07:11:43.820Z,-1.88
2022-12-18T07:14:10.405Z,-1.88
2022-12-18T07:16:37.003Z,-1.89
2022-12-18T07:19:03.620Z,-1.88
2022-12-18T07:21:30.200Z,-1.87
2022-12-18T07:23:57.209Z,-1.82
2022-12-18T07:26:24.074Z,-1.80
2022-12-18T07:28:50.957Z,-1.79
2022-12-18T07:31:21.541Z,-1.80
2022-12-18T07:33:49.096Z,-1.80
2022-12-18T07:36:16.049Z,-1.83
2022-12-18T07:38:42.665Z,-1.82
2022-12-18T07:41:13.834Z,-1.82
2022-12-18T07:43:42.040Z,-1.80
2022-12-18T07:46:09.911Z,-1.80
2022-12-18T07:48:36.544Z,-1.78
2022-12-18T07:51:05.667Z,-1.77
2022-12-18T07:53:33.343Z,-1.76
2022-12-18T07:56:26.043Z,-1.74
2022-12-18T07:58:48.735Z,-1.70
2022-12-18T08:01:15.666Z,-1.66
2022-12-18T08:03:42.861Z,-1.63
2022-12-18T08:06:10.665Z,-1.65
2022-12-18T08:08:37.385Z,-1.67
2022-12-18T08:11:07.240Z,-1.68
2022-12-18T08:13:33.721Z,-1.68
2022-12-18T08:16:08.081Z,-1.66
2022-12-18T08:18:36.356Z,-1.63
2022-12-18T08:21:13.879Z,-1.62
2022-12-18T08:23:42.959Z,-1.60
2022-12-18T08:26:10.995Z,-1.57
2022-12-18T08:28:37.621Z,-1.54
2022-12-18T08:31:05.192Z,-1.50
2022-12-18T08:33:32.100Z,-1.48
2022-12-18T08:36:02.506Z,-1.43
2022-12-18T08:38:29.325Z,-1.40
2022-12-18T08:41:03.819Z,-1.37
2022-12-18T08:43:30.789Z,-1.32
2022-12-18T08:45:57.832Z,-1.30
2022-12-18T08:48:24.459Z,-1.26
2022-12-18T08:50:58.137Z,-1.22
2022-12-18T08:53:30.346Z,-1.18
2022-12-18T08:56:03.383Z,-1.14
2022-12-18T08:58:30.419Z,-1.11
2022-12-18T09:01:09.359Z,-1.12
2022-12-18T09:03:36.574Z,-1.12
2022-12-18T09:06:03.421Z,-1.11
2022-12-18T09:08:30.096Z,-1.11
2022-12-18T09:10:56.796Z,-1.07
2022-12-18T09:13:23.660Z,-1.07
2022-12-18T09:15:52.732Z,-1.05
2022-12-18T09:18:21.012Z,-1.02
2022-12-18T09:20:47.889Z,-0.98
2022-12-18T09:23:14.636Z,-0.96
2022-12-18T09:25:41.230Z,-0.92
2022-12-18T09:28:12.778Z,-0.89
2022-12-18T09:30:41.148Z,-0.83
2022-12-18T09:33:07.750Z,-0.80
2022-12-18T09:35:41.640Z,-0.79
2022-12-18T09:38:09.836Z,-0.77
2022-12-18T09:40:43.090Z,-0.75
2022-12-18T09:43:15.980Z,-0.71
2022-12-18T09:45:47.136Z,-0.69
2022-12-18T09:48:27.437Z,-0.65
2022-12-18T09:50:59.177Z,-0.62
2022-12-18T09:53:31.577Z,-0.60
2022-12-18T09:55:58.591Z,-0.55
2022-12-18T09:58:35.940Z,-0.53
2022-12-18T10:01:02.697Z,-0.51
2022-12-18T10:03:29.262Z,-0.47
2022-12-18T10:06:02.669Z,-0.49
2022-12-18T10:08:39.089Z,-0.44
2022-12-18T10:11:43.738Z,-0.44
2022-12-18T10:14:37.408Z,-0.43
2022-12-18T10:17:33.444Z,-0.42
2022-12-18T10:20:06.225Z,-0.41
2022-12-18T10:22:54.104Z,-0.42
2022-12-18T10:25:34.115Z,-0.40
2022-12-18T10:28:11.445Z,-0.45
2022-12-18T10:30:40.494Z,-0.48
2022-12-18T10:33:10.453Z,-0.48
2022-12-18T10:35:37.345Z,-0.46
2022-12-18T10:38:06.884Z,-0.44
2022-12-18T10:40:48.030Z,-0.43
2022-12-18T10:43:15.932Z,-0.40
2022-12-18T10:45:44.485Z,-0.33
2022-12-18T10:48:22.729Z,-0.29
2022-12-18T10:53:38.559Z,-0.18
2022-12-18T10:56:07.379Z,-0.15
2022-12-18T10:58:39.113Z,-0.09
2022-12-18T11:01:17.498Z,-0.07
2022-12-18T11:04:01.624Z,-0.04
2022-12-18T11:06:29.771Z,0.03
2022-12-18T11:09:18.834Z,0.07
2022-12-18T11:11:50.933Z,0.13
2022-12-18T11:14:26.678Z,0.16
2022-12-18T11:17:24.316Z,0.20
2022-12-18T11:19:42.553Z,0.20
2022-12-18T11:22:25.841Z,0.18
2022-12-18T11:28:03.278Z,0.26
2022-12-18T11:30:37.543Z,0.29
2022-12-18T11:33:06.581Z,0.34
2022-12-18T11:35:42.001Z,0.41
2022-12-18T11:38:33.693Z,0.47
2022-12-18T11:41:02.924Z,0.52
2022-12-18T11:43:42.898Z,0.55
2022-12-18T11:46:19.944Z,0.53
2022-12-18T11:49:14.016Z,0.53
2022-12-18T11:51:50.958Z,0.54
2022-12-18T11:54:18.503Z,0.56
2022-12-18T11:57:15.366Z,0.56
2022-12-18T11:59:41.874Z,0.59
2022-12-18T12:02:34.634Z,0.57
2022-12-18T12:05:04.079Z,0.58
2022-12-18T12:07:42.649Z,0.59
2022-12-18T12:10:14.946Z,0.61
2022-12-18T12:12:58.514Z,0.62
2022-12-18T12:16:01.096Z,0.56
2022-12-18T12:18:45.880Z,0.54
2022-12-18T12:21:26.751Z,0.52
2022-12-18T12:24:10.509Z,0.52
2022-12-18T12:26:45.053Z,0.54
2022-12-18T12:29:31.652Z,0.54
2022-12-18T12:32:23.624Z,0.53
2022-12-18T12:35:02.718Z,0.54
2022-12-18T12:37:43.036Z,0.54
2022-12-18T12:40:49.768Z,0.50
2022-12-18T12:43:13.269Z,0.47
2022-12-18T12:45:47.562Z,0.44
2022-12-18T12:48:22.529Z,0.42
2022-12-18T12:50:50.155Z,0.42
2022-12-18T12:53:27.715Z,0.36
2022-12-18T12:55:55.264Z,0.32
2022-12-18T12:58:33.870Z,0.29
2022-12-18T13:01:33.563Z,0.28
2022-12-18T13:04:26.671Z,0.26
2022-12-18T13:07:03.055Z,0.25
2022-12-18T13:09:34.922Z,0.25
2022-12-18T13:12:11.975Z,0.24
2022-12-18T13:14:40.791Z,0.26
2022-12-18T13:17:24.967Z,0.26
2022-12-18T13:19:53.473Z,0.29
2022-12-18T13:22:37.262Z,0.28
2022-12-18T13:25:24.722Z,0.29
2022-12-18T13:28:06.664Z,0.27
2022-12-18T13:30:33.198Z,0.29
2022-12-18T13:33:22.984Z,0.26
2022-12-18T13:35:49.505Z,0.29
2022-12-18T13:38:41.084Z,0.27
2022-12-18T13:41:16.443Z,0.27
2022-12-18T13:43:52.380Z,0.26
2022-12-18T13:46:42.965Z,0.25
2022-12-18T13:49:15.658Z,0.25
2022-12-18T13:51:45.006Z,0.23
2022-12-18T13:54:18.893Z,0.21
2022-12-18T13:56:47.544Z,0.22
2022-12-18T13:59:25.325Z,0.20
2022-12-18T14:01:59.516Z,0.17
2022-12-18T14:04:31.339Z,0.14
2022-12-18T14:07:18.013Z,0.11
2022-12-18T14:09:58.129Z,0.08
2022-12-18T14:12:32.079Z,0.03
2022-12-18T14:15:01.279Z,-0.03
2022-12-18T14:17:27.837Z,-0.09
2022-12-18T14:19:55.034Z,-0.15
2022-12-18T14:22:26.638Z,-0.22
2022-12-18T14:25:21.231Z,-0.31
2022-12-18T14:27:51.994Z,-0.39
2022-12-18T14:30:24.852Z,-0.43
2022-12-18T14:33:11.537Z,-0.50
2022-12-18T14:35:52.816Z,-0.56
2022-12-18T14:38:25.645Z,-0.56
2022-12-18T14:41:16.841Z,-0.63
2022-12-18T14:43:45.540Z,-0.64
2022-12-18T14:46:35.448Z,-0.68
2022-12-18T14:49:20.444Z,-0.71
2022-12-18T14:51:55.893Z,-0.74
2022-12-18T14:54:24.075Z,-0.76
2022-12-18T14:56:57.335Z,-0.81
2022-12-18T14:59:26.156Z,-0.83
2022-12-18T15:02:17.048Z,-0.87
2022-12-18T15:04:44.503Z,-0.92
2022-12-18T15:07:20.113Z,-0.94
2022-12-18T15:10:08.112Z,-0.98
2022-12-18T15:12:39.764Z,-0.98
2022-12-18T15:15:26.575Z,-1.00
2022-12-18T15:18:00.995Z,-1.03
2022-12-18T15:20:32.388Z,-1.07
2022-12-18T15:22:59.078Z,-1.10
2022-12-18T15:25:37.384Z,-1.14
2022-12-18T15:28:05.146Z,-1.17
2022-12-18T15:30:31.619Z,-1.20
2022-12-18T15:33:18.587Z,-1.25
2022-12-18T15:35:47.102Z,-1.28
2022-12-18T15:38:13.801Z,-1.30
2022-12-18T15:40:40.439Z,-1.32
2022-12-18T15:43:10.063Z,-1.40
2022-12-18T15:45:36.540Z,-1.41
2022-12-18T15:48:03.199Z,-1.45
2022-12-18T15:50:29.872Z,-1.49
2022-12-18T15:52:57.561Z,-1.51
2022-12-18T15:55:25.253Z,-1.55
2022-12-18T15:57:51.814Z,-1.57
2022-12-18T16:00:18.758Z,-1.61
2022-12-18T16:02:45.756Z,-1.65
2022-12-18T16:05:17.208Z,-1.68
2022-12-18T16:07:44.810Z,-1.71
2022-12-18T16:10:12.225Z,-1.76
2022-12-18T16:12:39.149Z,-1.81
2022-12-18T16:15:06.705Z,-1.87
2022-12-18T16:17:34.278Z,-1.90
2022-12-18T16:20:00.889Z,-1.96
2022-12-18T16:22:29.732Z,-1.98
2022-12-18T16:24:57.410Z,-2.01
2022-12-18T16:27:24.847Z,-2.06
2022-12-18T16:29:51.608Z,-2.08
2022-12-18T16:32:20.279Z,-2.10
2022-12-18T16:34:47.392Z,-2.08
2022-12-18T16:37:15.142Z,-2.09
2022-12-18T16:39:42.247Z,-2.07
2022-12-18T16:42:16.693Z,-2.08
2022-12-18T16:44:43.592Z,-2.04
2022-12-18T16:47:11.387Z,-2.05
2022-12-18T16:49:41.411Z,-2.04
2022-12-18T16:52:08.367Z,-2.04
2022-12-18T16:54:34.867Z,-2.06
2022-12-18T16:57:01.421Z,-2.05
2022-12-18T16:59:28.120Z,-2.07
2022-12-18T17:01:55.317Z,-2.08
2022-12-18T17:04:21.843Z,-2.08
2022-12-18T17:06:48.422Z,-2.09
2022-12-18T17:09:15.802Z,-2.10
2022-12-18T17:11:45.004Z,-2.09
2022-12-18T17:14:15.749Z,-2.09
2022-12-18T17:16:42.261Z,-2.09
2022-12-18T17:19:13.746Z,-2.09
2022-12-18T17:21:44.465Z,-2.08
2022-12-18T17:24:10.941Z,-2.08
2022-12-18T17:26:37.630Z,-2.06
2022-12-18T17:29:04.433Z,-2.06
2022-12-18T17:31:31.383Z,-2.04
2022-12-18T17:33:58.671Z,-2.05
2022-12-18T17:36:26.267Z,-2.03
2022-12-18T17:38:56.090Z,-2.04
2022-12-18T17:41:23.628Z,-2.02
2022-12-18T17:43:57.870Z,-2.03
2022-12-18T17:46:25.452Z,-2.01
2022-12-18T17:48:54.860Z,-2.01
2022-12-18T17:51:21.656Z,-2.00
2022-12-18T17:53:48.294Z,-1.99
2022-12-18T17:56:16.924Z,-1.99
2022-12-18T17:58:44.092Z,-1.97
2022-12-18T18:01:23.321Z,-1.98
2022-12-18T18:03:52.880Z,-1.99
2022-12-18T18:06:20.606Z,-1.99
2022-12-18T18:08:47.418Z,-1.98
2022-12-18T18:11:18.079Z,-1.98
2022-12-18T18:13:47.206Z,-1.96
2022-12-18T18:16:13.968Z,-1.95
2022-12-18T18:18:40.514Z,-1.94
2022-12-18T18:21:10.023Z,-1.93
2022-12-18T18:23:37.321Z,-1.91
2022-12-18T18:26:08.332Z,-1.90
2022-12-18T18:28:36.276Z,-1.89
2022-12-18T18:31:06.371Z,-1.91
2022-12-18T18:33:33.381Z,-1.86
2022-12-18T18:35:59.934Z,-1.85
2022-12-18T18:38:26.878Z,-1.85
2022-12-18T18:41:03.854Z,-1.88
2022-12-18T18:43:31.113Z,-1.88
2022-12-18T18:45:58.709Z,-1.89
2022-12-18T18:48:26.544Z,-1.94
2022-12-18T18:51:00.790Z,-1.97
2022-12-18T18:53:27.761Z,-2.01
2022-12-18T18:56:34.496Z,-2.04
2022-12-18T18:58:44.559Z,-2.07
2022-12-18T19:01:17.507Z,-2.10
2022-12-18T19:03:45.096Z,-2.12
2022-12-18T19:06:16.264Z,-2.15
2022-12-18T19:08:43.813Z,-2.18
2022-12-18T19:11:11.365Z,-2.26
2022-12-18T19:13:37.953Z,-2.22
2022-12-18T19:16:09.065Z,-2.24
2022-12-18T19:18:37.020Z,-2.24
2022-12-18T19:21:06.523Z,-2.27
2022-12-18T19:23:34.623Z,-2.26
2022-12-18T19:26:27.071Z,-2.29
2022-12-18T19:28:50.010Z,-2.29
2022-12-18T19:31:24.374Z,-2.30
2022-12-18T19:33:52.114Z,-2.29
2022-12-18T19:36:21.436Z,-2.30
2022-12-18T19:38:50.280Z,-2.32
2022-12-18T19:41:18.035Z,-2.31
2022-12-18T19:43:45.903Z,-2.32
2022-12-18T19:46:18.295Z,-2.34
2022-12-18T19:48:45.464Z,-2.33
2022-12-18T19:51:16.343Z,-2.35
2022-12-18T19:53:42.997Z,-2.35
2022-12-18T19:56:15.813Z,-2.37
2022-12-18T19:58:43.417Z,-2.39
2022-12-18T20:01:10.583Z,-2.41
2022-12-18T20:03:39.087Z,-2.43
2022-12-18T20:06:18.894Z,-2.46
2022-12-18T20:08:46.011Z,-2.44
2022-12-18T20:11:12.815Z,-2.45
2022-12-18T20:13:39.637Z,-2.45
2022-12-18T20:16:06.627Z,-2.46
2022-12-18T20:18:33.587Z,-2.45
2022-12-18T20:21:00.145Z,-2.45
2022-12-18T20:23:28.167Z,-2.49
2022-12-18T20:25:55.381Z,-2.45
2022-12-18T20:28:23.610Z,-2.44
2022-12-18T20:30:50.677Z,-2.45
2022-12-18T20:33:17.430Z,-2.45
2022-12-18T20:35:43.976Z,-2.47
2022-12-18T20:38:10.562Z,-2.45
2022-12-18T20:40:41.428Z,-2.47
2022-12-18T20:43:12.433Z,-2.46
2022-12-18T20:45:42.046Z,-2.44
2022-12-18T20:48:10.446Z,-2.44
2022-12-18T20:50:37.017Z,-2.44
2022-12-18T20:53:04.002Z,-2.43
2022-12-18T20:55:30.497Z,-2.41
2022-12-18T20:57:57.880Z,-2.40
2022-12-18T21:00:24.368Z,-2.41
2022-12-18T21:02:51.012Z,-2.42
2022-12-18T21:05:17.640Z,-2.42
2022-12-18T21:07:44.218Z,-2.42
2022-12-18T21:10:10.802Z,-2.43
2022-12-18T21:12:42.682Z,-2.42
2022-12-18T21:15:28.534Z,-2.42
2022-12-18T21:17:55.499Z,-2.41
2022-12-18T21:20:22.057Z,-2.41
2022-12-18T21:22:48.548Z,-2.41
2022-12-18T21:25:15.026Z,-2.41
2022-12-18T21:27:41.596Z,-2.41
2022-12-18T21:30:08.626Z,-2.42
2022-12-18T21:32:35.095Z,-2.42
2022-12-18T21:35:01.713Z,-2.43
2022-12-18T21:37:28.180Z,-2.44
2022-12-18T21:39:54.765Z,-2.45
2022-12-18T21:42:21.261Z,-2.44
2022-12-18T21:44:48.427Z,-2.43
2022-12-18T21:47:21.516Z,-2.42
2022-12-18T21:49:50.772Z,-2.41
2022-12-18T21:52:17.323Z,-2.42
2022-12-18T21:54:43.888Z,-2.43
2022-12-18T21:57:10.792Z,-2.45
2022-12-18T21:59:40.150Z,-2.46
2022-12-18T22:02:25.036Z,-2.48
2022-12-18T22:04:51.725Z,-2.48
2022-12-18T22:07:18.605Z,-2.49
2022-12-18T22:09:45.177Z,-2.51
2022-12-18T22:12:13.628Z,-2.53
2022-12-18T22:14:40.591Z,-2.57
2022-12-18T22:17:07.086Z,-2.60
2022-12-18T22:19:39.613Z,-2.67
2022-12-18T22:22:09.332Z,-2.67
2022-12-18T22:24:35.848Z,-2.71
2022-12-18T22:27:06.433Z,-2.75
2022-12-18T22:29:32.945Z,-2.79
2022-12-18T22:32:00.815Z,-2.87
2022-12-18T22:34:27.337Z,-2.84
2022-12-18T22:36:54.291Z,-2.87
2022-12-18T22:39:26.137Z,-2.87
2022-12-18T22:41:55.775Z,-2.87
2022-12-18T22:44:22.627Z,-2.86
2022-12-18T22:47:03.516Z,-2.87
2022-12-18T22:49:32.388Z,-2.85
2022-12-18T22:52:00.466Z,-2.83
2022-12-18T22:54:27.110Z,-2.80
2022-12-18T22:56:53.557Z,-2.78
2022-12-18T22:59:23.030Z,-2.74
2022-12-18T23:01:50.845Z,-2.72
2022-12-18T23:04:18.189Z,-2.68
2022-12-18T23:06:46.496Z,-2.65
2022-12-18T23:09:16.337Z,-2.65
2022-12-18T23:11:42.985Z,-2.61
2022-12-18T23:14:09.564Z,-2.60
2022-12-18T23:16:36.115Z,-2.57
2022-12-18T23:19:02.741Z,-2.55
2022-12-18T23:21:29.590Z,-2.52
2022-12-18T23:23:57.058Z,-2.55
2022-12-18T23:26:25.008Z,-2.49
2022-12-18T23:28:52.042Z,-2.52
2022-12-18T23:31:24.818Z,-2.49
2022-12-18T23:33:52.159Z,-2.47
2022-12-18T23:36:20.036Z,-2.45
2022-12-18T23:38:51.468Z,-2.46
2022-12-18T23:41:19.862Z,-2.44
2022-12-18T23:43:46.601Z,-2.41
2022-12-18T23:46:21.526Z,-2.46
2022-12-18T23:48:48.927Z,-2.40
2022-12-18T23:51:16.854Z,-2.39
2022-12-18T23:53:43.752Z,-2.43
2022-12-18T23:56:12.388Z,-2.38
2022-12-18T23:58:39.432Z,-2.37
